Time,TemperatureF,DewpointF,PressureIn,WindDirection,WindDirectionDegrees,WindSpeedMPH,WindSpeedGustMPH,Humidity,HourlyPrecipIn,Conditions,Clouds,dailyrainin,SoftwareType,DateUTC
2013-01-24 00:02:00,39.0,39.0,30.23,North,0,0.0,0.0,100,0.00,,,0.63,,2013-01-24 08:02:00,
2013-01-24 00:11:00,39.0,39.0,30.23,North,0,0.0,0.0,100,0.00,,,0.63,,2013-01-24 08:11:00,
2013-01-24 00:22:00,39.0,39.0,30.23,North,0,0.0,0.0,100,0.00,,,0.63,,2013-01-24 08:22:00,
2013-01-24 00:32:00,39.0,39.0,30.23,North,0,0.0,0.0,100,0.00,,,0.63,,2013-01-24 08:32:00,
2013-01-24 00:42:00,39.0,39.0,30.23,North,0,0.0,0.0,100,0.00,,,0.63,,2013-01-24 08:42:00,
2013-01-24 00:53:00,39.0,39.0,30.23,North,0,0.0,0.0,100,0.00,,,0.63,,2013-01-24 08:53:00,
2013-01-24 01:02:00,40.0,40.0,30.23,North,0,0.0,0.0,100,0.00,,,0.63,,2013-01-24 09:02:00,
2013-01-24 01:12:00,40.0,40.0,30.23,North,0,0.0,0.0,100,0.00,,,0.63,,2013-01-24 09:12:00,
2013-01-24 01:22:00,40.0,40.0,30.23,North,0,0.0,0.0,100,0.00,,,0.63,,2013-01-24 09:22:00,
2013-01-24 01:32:00,40.0,40.0,30.23,North,0,0.0,0.0,100,0.00,,,0.63,,2013-01-24 09:32:00,
2013-01-24 01:42:00,40.0,40.0,30.23,North,0,0.0,0.0,100,0.00,,,0.63,,2013-01-24 09:42:00,
2013-01-24 01:53:00,40.0,40.0,30.23,North,0,0.0,3.0,100,0.00,,,0.63,,2013-01-24 09:53:00,
2013-01-24 02:02:00,40.0,40.0,30.24,North,0,0.0,4.0,100,0.00,,,0.63,,2013-01-24 10:02:00,
2013-01-24 02:11:00,40.0,40.0,30.24,North,0,0.0,4.0,100,0.00,,,0.63,,2013-01-24 10:11:00,
2013-01-24 02:22:00,40.0,40.0,30.24,North,0,0.0,0.0,100,0.00,,,0.63,,2013-01-24 10:22:00,
2013-01-24 02:32:00,39.0,39.0,30.23,North,0,0.0,3.0,100,0.00,,,0.63,,2013-01-24 10:32:00,
2013-01-24 02:42:00,39.0,39.0,30.23,North,0,0.0,3.0,100,0.00,,,0.63,,2013-01-24 10:42:00,
2013-01-24 02:52:00,39.0,39.0,30.23,North,0,0.0,5.0,100,0.00,,,0.63,,2013-01-24 10:52:00,
2013-01-24 03:02:00,38.0,38.0,30.23,North,0,0.0,0.0,100,0.00,,,0.63,,2013-01-24 11:02:00,
2013-01-24 03:11:00,38.0,38.0,30.23,North,0,0.0,0.0,100,0.00,,,0.63,,2013-01-24 11:11:00,
2013-01-24 03:22:00,38.0,38.0,30.24,North,0,0.0,0.0,100,0.00,,,0.63,,2013-01-24 11:22:00,
2013-01-24 03:32:00,38.0,38.0,30.24,North,0,0.0,0.0,100,0.00,,,0.63,,2013-01-24 11:32:00,
2013-01-24 03:42:00,38.0,38.0,30.24,North,0,0.0,0.0,100,0.00,,,0.63,,2013-01-24 11:42:00,
2013-01-24 03:53:00,37.0,37.0,30.24,North,0,0.0,0.0,100,0.00,,,0.63,,2013-01-24 11:53:00,
2013-01-24 04:02:00,37.0,37.0,30.23,ESE,121,5.0,6.0,100,0.00,,,0.63,,2013-01-24 12:02:00,
2013-01-24 04:11:00,37.0,37.0,30.23,ESE,121,5.0,6.0,100,0.00,,,0.63,,2013-01-24 12:11:00,
2013-01-24 04:22:00,37.0,37.0,30.22,North,0,0.0,6.0,100,0.00,,,0.63,,2013-01-24 12:22:00,
2013-01-24 04:32:00,37.0,37.0,30.22,SE,134,5.0,8.0,100,0.00,,,0.63,,2013-01-24 12:32:00,
2013-01-24 04:42:00,37.0,37.0,30.22,SE,134,5.0,8.0,100,0.00,,,0.63,,2013-01-24 12:42:00,
2013-01-24 04:53:00,37.0,37.0,30.22,North,0,0.0,8.0,100,0.00,,,0.63,,2013-01-24 12:53:00,
2013-01-24 05:02:00,37.0,37.0,30.21,ESE,106,6.0,9.0,100,0.00,,,0.63,,2013-01-24 13:02:00,
2013-01-24 05:12:00,37.0,37.0,30.21,ESE,106,6.0,9.0,100,0.00,,,0.63,,2013-01-24 13:12:00,
2013-01-24 05:22:00,37.0,37.0,30.22,North,0,0.0,5.0,100,0.00,,,0.63,,2013-01-24 13:22:00,
2013-01-24 05:32:00,37.0,37.0,30.22,North,0,0.0,0.0,100,0.00,,,0.63,,2013-01-24 13:32:00,
2013-01-24 05:42:00,37.0,37.0,30.22,North,0,0.0,0.0,100,0.00,,,0.63,,2013-01-24 13:42:00,
2013-01-24 05:53:00,36.0,36.0,30.22,North,0,0.0,0.0,100,0.00,,,0.63,,2013-01-24 13:53:00,
2013-01-24 06:02:00,36.0,36.0,30.21,North,0,0.0,0.0,100,0.00,,,0.63,,2013-01-24 14:02:00,
2013-01-24 06:11:00,36.0,36.0,30.21,North,0,0.0,0.0,100,0.00,,,0.63,,2013-01-24 14:11:00,
2013-01-24 06:22:00,36.0,36.0,30.20,SE,135,3.0,7.0,100,0.00,,,0.63,,2013-01-24 14:22:00,
2013-01-24 06:32:00,37.0,37.0,30.20,NNE,16,2.0,8.0,100,0.00,,,0.63,,2013-01-24 14:32:00,
2013-01-24 06:42:00,37.0,37.0,30.20,NNE,16,2.0,8.0,100,0.00,,,0.63,,2013-01-24 14:42:00,
2013-01-24 06:53:00,37.0,37.0,30.19,East,84,7.0,9.0,100,0.00,,,0.63,,2013-01-24 14:53:00,
2013-01-24 07:02:00,38.0,38.0,30.19,ESE,112,5.0,11.0,100,0.00,,,0.63,,2013-01-24 15:02:00,
2013-01-24 07:12:00,38.0,38.0,30.19,ESE,112,5.0,11.0,100,0.00,,,0.63,,2013-01-24 15:12:00,
2013-01-24 07:22:00,38.0,38.0,30.19,ESE,105,7.0,9.0,100,0.00,,,0.63,,2013-01-24 15:22:00,
2013-01-24 07:32:00,38.0,38.0,30.19,ESE,105,7.0,9.0,100,0.00,,,0.63,,2013-01-24 15:32:00,
2013-01-24 07:42:00,38.0,38.0,30.19,SE,130,7.0,11.0,100,0.00,,,0.63,,2013-01-24 15:42:00,
2013-01-24 07:53:00,38.0,38.0,30.19,ESE,123,7.0,12.0,100,0.00,,,0.63,,2013-01-24 15:53:00,
2013-01-24 08:02:00,38.0,38.0,30.18,North,0,2.0,11.0,100,0.00,,,0.63,,2013-01-24 16:02:00,
2013-01-24 08:11:00,38.0,38.0,30.18,North,0,2.0,11.0,100,0.00,,,0.63,,2013-01-24 16:11:00,
2013-01-24 08:22:00,38.0,38.0,30.17,ESE,114,6.0,12.0,100,0.00,,,0.63,,2013-01-24 16:22:00,
2013-01-24 08:32:00,38.0,38.0,30.17,ESE,116,5.0,13.0,100,0.00,,,0.63,,2013-01-24 16:32:00,
2013-01-24 08:42:00,38.0,38.0,30.17,ESE,116,5.0,13.0,100,0.00,,,0.63,,2013-01-24 16:42:00,
2013-01-24 09:01:00,39.0,39.0,30.17,North,0,0.0,6.0,100,0.00,,,0.63,,2013-01-24 17:01:00,
2013-01-24 09:11:00,39.0,39.0,30.17,North,0,0.0,6.0,100,0.00,,,0.63,,2013-01-24 17:11:00,
2013-01-24 09:21:00,40.0,40.0,30.18,SE,145,5.0,9.0,100,0.00,,,0.63,,2013-01-24 17:21:00,
2013-01-24 09:31:00,41.0,41.0,30.18,SE,142,5.0,10.0,100,0.00,,,0.59,,2013-01-24 17:31:00,
2013-01-24 09:42:00,41.0,41.0,30.18,SE,142,5.0,10.0,100,0.00,,,0.59,,2013-01-24 17:42:00,
2013-01-24 09:52:00,42.0,42.0,30.18,ESE,119,9.0,13.0,100,0.00,,,0.59,,2013-01-24 17:52:00,
2013-01-24 10:01:00,42.0,42.0,30.17,SE,128,8.0,13.0,100,0.00,,,0.59,,2013-01-24 18:01:00,
2013-01-24 10:11:00,44.0,44.0,30.18,ESE,106,10.0,11.0,100,0.00,,,0.59,,2013-01-24 18:11:00,
2013-01-24 10:21:00,44.0,44.0,30.18,ESE,106,10.0,11.0,100,0.00,,,0.59,,2013-01-24 18:21:00,
2013-01-24 10:31:00,45.0,45.0,30.18,ESE,117,7.0,9.0,100,0.00,,,0.51,,2013-01-24 18:31:00,
2013-01-24 10:41:00,45.0,45.0,30.18,ESE,117,7.0,9.0,100,0.00,,,0.51,,2013-01-24 18:41:00,
2013-01-24 10:53:00,45.0,45.0,30.18,SE,124,8.0,10.0,100,0.00,,,0.51,,2013-01-24 18:53:00,
2013-01-24 11:01:00,46.0,46.0,30.16,ESE,114,9.0,13.0,100,0.00,,,0.51,,2013-01-24 19:01:00,
2013-01-24 11:11:00,46.0,46.0,30.16,ESE,113,11.0,14.0,100,0.00,,,0.51,,2013-01-24 19:11:00,
2013-01-24 11:21:00,46.0,46.0,30.16,ESE,113,11.0,14.0,100,0.00,,,0.51,,2013-01-24 19:21:00,
2013-01-24 11:32:00,46.0,46.0,30.16,SE,133,11.0,14.0,100,0.00,,,0.36,,2013-01-24 19:32:00,
2013-01-24 11:41:00,47.0,47.0,30.15,ESE,120,6.0,14.0,100,0.00,,,0.36,,2013-01-24 19:41:00,
2013-01-24 11:52:00,47.0,47.0,30.15,ESE,120,6.0,14.0,100,0.00,,,0.36,,2013-01-24 19:52:00,
2013-01-24 12:01:00,47.0,47.0,30.15,ESE,121,9.0,11.0,100,0.00,,,0.36,,2013-01-24 20:01:00,
2013-01-24 12:11:00,47.0,47.0,30.14,SE,127,6.0,9.0,100,0.00,,,0.36,,2013-01-24 20:11:00,
2013-01-24 12:21:00,47.0,47.0,30.14,SE,127,6.0,9.0,100,0.00,,,0.36,,2013-01-24 20:21:00,
2013-01-24 12:32:00,48.0,48.0,30.13,ESE,119,6.0,11.0,100,0.00,,,0.28,,2013-01-24 20:32:00,
2013-01-24 12:42:00,48.0,48.0,30.13,NE,47,2.0,9.0,100,0.00,,,0.28,,2013-01-24 20:42:00,
2013-01-24 12:52:00,48.0,48.0,30.13,NE,47,2.0,9.0,100,0.00,,,0.28,,2013-01-24 20:52:00,
2013-01-24 13:01:00,49.0,49.0,30.13,SE,128,8.0,10.0,100,0.00,,,0.28,,2013-01-24 21:01:00,
2013-01-24 13:11:00,49.0,49.0,30.13,SE,126,7.0,8.0,100,0.00,,,0.28,,2013-01-24 21:11:00,
2013-01-24 13:21:00,49.0,49.0,30.13,SE,126,7.0,8.0,100,0.00,,,0.28,,2013-01-24 21:21:00,
2013-01-24 13:32:00,50.0,50.0,30.12,ESE,113,5.0,9.0,100,0.00,,,0.20,,2013-01-24 21:32:00,
2013-01-24 13:42:00,50.0,50.0,30.12,ESE,113,5.0,9.0,100,0.00,,,0.20,,2013-01-24 21:42:00,
2013-01-24 13:52:00,51.0,51.0,30.12,ENE,63,2.0,5.0,99,0.00,,,0.20,,2013-01-24 21:52:00,
2013-01-24 14:02:00,51.0,50.0,30.12,North,0,0.0,5.0,98,0.00,,,0.20,,2013-01-24 22:02:00,
2013-01-24 14:11:00,51.0,50.0,30.12,North,0,0.0,5.0,98,0.00,,,0.20,,2013-01-24 22:11:00,
2013-01-24 14:21:00,51.0,50.0,30.12,East,89,2.0,7.0,97,0.00,,,0.20,,2013-01-24 22:21:00,
2013-01-24 14:31:00,51.0,50.0,30.12,SSE,163,1.0,8.0,96,0.00,,,0.11,,2013-01-24 22:31:00,
2013-01-24 14:41:00,51.0,50.0,30.12,SSE,163,1.0,8.0,96,0.00,,,0.11,,2013-01-24 22:41:00,
2013-01-24 14:52:00,50.0,48.0,30.13,West,259,10.0,12.0,94,0.00,,,0.11,,2013-01-24 22:52:00,
2013-01-24 15:01:00,50.0,48.0,30.14,SW,233,10.0,16.0,94,0.00,,,0.11,,2013-01-24 23:01:00,
2013-01-24 15:11:00,50.0,48.0,30.14,SW,233,10.0,16.0,94,0.00,,,0.11,,2013-01-24 23:11:00,
2013-01-24 15:21:00,50.0,48.0,30.14,SSW,205,11.0,16.0,94,0.00,,,0.11,,2013-01-24 23:21:00,
2013-01-24 15:31:00,49.0,48.0,30.13,SSW,198,12.0,18.0,95,0.00,,,0.04,,2013-01-24 23:31:00,
2013-01-24 15:42:00,49.0,48.0,30.13,SSW,198,12.0,18.0,95,0.00,,,0.04,,2013-01-24 23:42:00,
2013-01-24 15:52:00,49.0,48.0,30.14,SSW,204,8.0,14.0,96,0.00,,,0.04,,2013-01-24 23:52:00,
2013-01-24 16:01:00,49.0,48.0,30.14,SW,221,11.0,15.0,97,0.00,,,0.04,,2013-01-25 00:01:00,
2013-01-24 16:11:00,49.0,48.0,30.14,SW,221,11.0,15.0,97,0.00,,,0.04,,2013-01-25 00:11:00,
2013-01-24 16:21:00,48.0,48.0,30.14,SSW,201,8.0,16.0,99,0.01,,,0.04,,2013-01-25 00:21:00,
2013-01-24 16:31:00,48.0,48.0,30.15,WSW,243,5.0,13.0,100,0.01,,,0.02,,2013-01-25 00:31:00,
2013-01-24 16:41:00,48.0,48.0,30.15,WSW,243,5.0,13.0,100,0.01,,,0.02,,2013-01-25 00:41:00,
2013-01-24 16:52:00,48.0,48.0,30.15,SW,222,8.0,13.0,100,0.01,,,0.02,,2013-01-25 00:52:00,
2013-01-24 17:01:00,48.0,48.0,30.16,SSW,207,8.0,12.0,100,0.02,,,0.02,,2013-01-25 01:01:00,
2013-01-24 17:11:00,48.0,48.0,30.16,South,183,11.0,14.0,100,0.01,,,0.02,,2013-01-25 01:11:00,
2013-01-24 17:21:00,48.0,48.0,30.16,South,183,11.0,14.0,100,0.01,,,0.02,,2013-01-25 01:21:00,
2013-01-24 17:31:00,47.0,47.0,30.16,South,191,11.0,14.0,100,0.02,,,0.04,,2013-01-25 01:31:00,
2013-01-24 17:41:00,47.0,47.0,30.16,South,191,11.0,14.0,100,0.02,,,0.04,,2013-01-25 01:41:00,
2013-01-24 17:52:00,47.0,47.0,30.16,SW,225,5.0,10.0,100,0.02,,,0.04,,2013-01-25 01:52:00,
2013-01-24 18:01:00,47.0,47.0,30.16,SSE,158,6.0,9.0,100,0.02,,,0.04,,2013-01-25 02:01:00,
2013-01-24 18:11:00,47.0,47.0,30.16,SSE,158,6.0,9.0,100,0.02,,,0.04,,2013-01-25 02:11:00,
2013-01-24 18:21:00,46.0,46.0,30.15,SSE,156,7.0,12.0,100,0.04,,,0.06,,2013-01-25 02:21:00,
2013-01-24 18:31:00,46.0,46.0,30.16,SSE,165,7.0,9.0,100,0.05,,,0.08,,2013-01-25 02:31:00,
2013-01-24 18:41:00,46.0,46.0,30.16,South,175,6.0,9.0,100,0.05,,,0.08,,2013-01-25 02:41:00,
2013-01-24 18:52:00,46.0,46.0,30.16,South,175,6.0,9.0,100,0.05,,,0.08,,2013-01-25 02:52:00,
2013-01-24 19:01:00,46.0,46.0,30.16,South,180,6.0,10.0,100,0.04,,,0.08,,2013-01-25 03:01:00,
2013-01-24 19:11:00,46.0,46.0,30.16,SSW,207,2.0,7.0,100,0.02,,,0.08,,2013-01-25 03:11:00,
2013-01-24 19:21:00,46.0,46.0,30.16,SSW,207,2.0,7.0,100,0.02,,,0.08,,2013-01-25 03:21:00,
2013-01-24 19:32:00,46.0,46.0,30.16,South,180,7.0,9.0,100,0.01,,,0.10,,2013-01-25 03:32:00,
2013-01-24 19:41:00,46.0,46.0,30.16,South,180,7.0,9.0,100,0.01,,,0.10,,2013-01-25 03:41:00,
2013-01-24 19:52:00,46.0,46.0,30.16,South,179,7.0,9.0,100,0.01,,,0.10,,2013-01-25 03:52:00,
2013-01-24 20:01:00,46.0,46.0,30.16,ESE,123,9.0,10.0,100,0.01,,,0.10,,2013-01-25 04:01:00,
2013-01-24 20:11:00,45.0,45.0,30.16,SSE,156,5.0,11.0,100,0.01,,,0.10,,2013-01-25 04:11:00,
2013-01-24 20:22:00,45.0,45.0,30.16,SSE,156,5.0,11.0,100,0.01,,,0.10,,2013-01-25 04:22:00,
2013-01-24 20:31:00,45.0,45.0,30.16,SW,215,7.0,12.0,100,0.00,,,0.10,,2013-01-25 04:31:00,
2013-01-24 20:41:00,45.0,45.0,30.16,SW,215,7.0,12.0,100,0.00,,,0.10,,2013-01-25 04:41:00,
2013-01-24 20:51:00,45.0,45.0,30.17,SSE,168,8.0,9.0,100,0.00,,,0.10,,2013-01-25 04:51:00,
2013-01-24 21:03:00,45.0,45.0,30.16,SW,215,10.0,13.0,100,0.01,,,0.10,,2013-01-25 05:03:00,
2013-01-24 21:12:00,45.0,45.0,30.16,SSE,168,10.0,15.0,100,0.01,,,0.10,,2013-01-25 05:12:00,
2013-01-24 21:22:00,45.0,45.0,30.16,SSE,168,10.0,15.0,100,0.01,,,0.10,,2013-01-25 05:22:00,
2013-01-24 21:31:00,45.0,45.0,30.16,SSW,210,11.0,14.0,100,0.02,,,0.12,,2013-01-25 05:31:00,
2013-01-24 21:42:00,45.0,45.0,30.16,SSW,210,11.0,14.0,100,0.02,,,0.12,,2013-01-25 05:42:00,
2013-01-24 21:52:00,45.0,45.0,30.16,SW,232,9.0,15.0,100,0.03,,,0.12,,2013-01-25 05:52:00,
2013-01-24 22:01:00,45.0,45.0,30.16,South,190,12.0,16.0,100,0.02,,,0.12,,2013-01-25 06:01:00,
2013-01-24 22:11:00,45.0,45.0,30.16,South,190,12.0,16.0,100,0.02,,,0.12,,2013-01-25 06:11:00,
2013-01-24 22:21:00,45.0,45.0,30.16,SSW,207,11.0,16.0,100,0.02,,,0.12,,2013-01-25 06:21:00,
2013-01-24 22:31:00,45.0,45.0,30.16,SSW,211,7.0,15.0,100,0.02,,,0.13,,2013-01-25 06:31:00,
2013-01-24 22:41:00,46.0,46.0,30.16,SSW,212,6.0,11.0,100,0.01,,,0.13,,2013-01-25 06:41:00,
2013-01-24 22:52:00,46.0,46.0,30.16,SSW,212,6.0,11.0,100,0.01,,,0.13,,2013-01-25 06:52:00,
2013-01-24 23:01:00,46.0,46.0,30.17,South,186,7.0,11.0,100,0.02,,,0.13,,2013-01-25 07:01:00,
2013-01-24 23:11:00,46.0,46.0,30.17,SSW,198,10.0,15.0,100,0.03,,,0.14,,2013-01-25 07:11:00,
2013-01-24 23:21:00,46.0,46.0,30.17,SSW,198,10.0,15.0,100,0.03,,,0.14,,2013-01-25 07:21:00,
2013-01-24 23:31:00,46.0,46.0,30.17,SSW,200,10.0,14.0,100,0.02,,,0.15,,2013-01-25 07:31:00,
2013-01-24 23:41:00,46.0,46.0,30.17,South,170,9.0,16.0,100,0.02,,,0.15,,2013-01-25 07:41:00,
2013-01-24 23:51:00,46.0,46.0,30.17,South,170,9.0,16.0,100,0.02,,,0.15,,2013-01-25 07:51:00,